createdAt,value
2022-09-27T00:00:46.809Z,14.01
2022-09-27T00:03:13.725Z,13.88
2022-09-27T00:05:40.524Z,13.94
2022-09-27T00:08:07.189Z,13.92
2022-09-27T00:10:33.845Z,14.08
2022-09-27T00:13:00.490Z,14.12
2022-09-27T00:15:27.197Z,13.97
2022-09-27T00:17:53.945Z,13.99
2022-09-27T00:20:21.150Z,14.00
2022-09-27T00:22:48.973Z,14.01
2022-09-27T00:25:16.580Z,14.04
2022-09-27T00:27:43.700Z,13.94
2022-09-27T00:30:11.175Z,13.96
2022-09-27T00:32:37.797Z,13.83
2022-09-27T00:35:04.730Z,14.09
2022-09-27T00:37:31.338Z,13.97
2022-09-27T00:39:57.934Z,13.91
2022-09-27T00:42:24.608Z,13.81
2022-09-27T00:44:59.993Z,13.93
2022-09-27T00:47:41.038Z,13.94
2022-09-27T00:50:16.305Z,13.92
2022-09-27T00:53:04.188Z,13.86
2022-09-27T00:55:35.152Z,13.69
2022-09-27T00:58:05.179Z,13.73
2022-09-27T01:00:32.669Z,13.62
2022-09-27T01:03:01.386Z,13.72
2022-09-27T01:05:29.801Z,13.81
2022-09-27T01:07:56.822Z,13.94
2022-09-27T01:10:26.572Z,14.00
2022-09-27T01:13:00.612Z,14.09
2022-09-27T01:15:36.223Z,13.87
2022-09-27T01:18:13.343Z,13.79
2022-09-27T01:20:54.860Z,13.53
2022-09-27T01:23:39.596Z,13.56
2022-09-27T01:26:24.817Z,13.53
2022-09-27T01:28:58.895Z,13.61
2022-09-27T01:31:47.085Z,13.70
2022-09-27T01:34:31.995Z,13.65
2022-09-27T01:37:26.383Z,13.58
2022-09-27T01:40:08.156Z,13.60
2022-09-27T01:42:50.347Z,13.66
2022-09-27T01:45:42.528Z,13.70
2022-09-27T01:48:22.736Z,13.53
2022-09-27T01:51:11.021Z,13.65
2022-09-27T01:53:41.850Z,13.53
2022-09-27T01:56:15.210Z,13.55
2022-09-27T01:58:49.380Z,13.65
2022-09-27T02:01:19.486Z,13.61
2022-09-27T02:03:51.670Z,13.57
2022-09-27T02:06:23.116Z,13.62
2022-09-27T02:09:12.363Z,13.45
2022-09-27T02:11:45.203Z,13.47
2022-09-27T02:14:19.801Z,13.46
2022-09-27T02:16:51.597Z,13.49
2022-09-27T02:19:46.206Z,13.51
2022-09-27T02:22:28.581Z,13.48
2022-09-27T02:24:58.916Z,13.43
2022-09-27T02:27:37.019Z,13.39
2022-09-27T02:30:22.029Z,13.31
2022-09-27T02:32:48.680Z,13.34
2022-09-27T02:35:27.368Z,13.33
2022-09-27T02:37:55.556Z,13.34
2022-09-27T02:40:23.583Z,13.43
2022-09-27T02:42:50.820Z,13.53
2022-09-27T02:45:19.775Z,13.65
2022-09-27T02:47:56.888Z,13.55
2022-09-27T02:50:42.695Z,13.61
2022-09-27T02:53:46.038Z,13.49
2022-09-27T02:56:40.583Z,13.58
2022-09-27T02:59:19.079Z,13.56
2022-09-27T03:02:04.289Z,13.62
2022-09-27T03:05:03.204Z,13.64
2022-09-27T03:07:30.329Z,13.61
2022-09-27T03:09:57.048Z,13.72
2022-09-27T03:12:26.163Z,13.54
2022-09-27T03:14:58.536Z,13.65
2022-09-27T03:17:25.677Z,13.58
2022-09-27T03:19:52.678Z,13.56
2022-09-27T03:22:19.365Z,13.60
2022-09-27T03:24:45.968Z,13.64
2022-09-27T03:27:12.925Z,13.61
2022-09-27T03:29:39.485Z,13.75
2022-09-27T03:32:06.159Z,13.81
2022-09-27T03:34:32.834Z,13.86
2022-09-27T03:36:59.586Z,13.81
2022-09-27T03:39:26.229Z,14.00
2022-09-27T03:41:53.236Z,13.99
2022-09-27T03:44:19.987Z,13.95
2022-09-27T03:46:46.953Z,14.06
2022-09-27T03:49:13.578Z,14.00
2022-09-27T03:51:40.273Z,14.10
2022-09-27T03:54:06.850Z,14.16
2022-09-27T03:56:33.623Z,14.06
2022-09-27T03:59:01.195Z,13.78
2022-09-27T04:01:28.978Z,13.70
2022-09-27T04:03:55.706Z,13.86
2022-09-27T04:06:23.202Z,13.85
2022-09-27T04:08:50.755Z,13.88
2022-09-27T04:11:17.577Z,13.95
2022-09-27T04:13:44.643Z,13.95
2022-09-27T04:16:11.328Z,13.90
2022-09-27T04:18:37.931Z,13.94
2022-09-27T04:21:04.636Z,14.07
2022-09-27T04:23:31.457Z,14.00
2022-09-27T04:25:58.121Z,13.89
2022-09-27T04:28:24.821Z,14.03
2022-09-27T04:30:51.483Z,14.09
2022-09-27T04:33:18.140Z,14.16
2022-09-27T04:36:03.370Z,14.08
2022-09-27T04:38:30.049Z,14.17
2022-09-27T04:40:56.947Z,14.22
2022-09-27T04:43:23.724Z,14.09
2022-09-27T04:45:50.470Z,14.00
2022-09-27T04:48:17.337Z,13.99
2022-09-27T04:50:43.929Z,14.13
2022-09-27T04:53:15.237Z,14.15
2022-09-27T04:55:47.558Z,14.06
2022-09-27T04:58:14.271Z,14.10
2022-09-27T05:00:42.868Z,14.08
2022-09-27T05:03:09.683Z,14.08
2022-09-27T05:05:36.433Z,14.25
2022-09-27T05:08:03.041Z,14.19
2022-09-27T05:10:29.779Z,14.23
2022-09-27T05:12:56.442Z,14.26
2022-09-27T05:15:23.111Z,14.28
2022-09-27T05:17:52.629Z,14.10
2022-09-27T05:20:19.898Z,14.19
2022-09-27T05:22:47.134Z,14.32
2022-09-27T05:25:13.917Z,14.39
2022-09-27T05:27:40.914Z,14.48
2022-09-27T05:30:08.313Z,14.50
2022-09-27T05:32:35.912Z,14.42
2022-09-27T05:35:02.633Z,14.44
2022-09-27T05:37:33.007Z,14.25
2022-09-27T05:40:01.237Z,14.22
2022-09-27T05:42:37.840Z,14.37
2022-09-27T05:45:05.306Z,14.39
2022-09-27T05:47:31.858Z,14.34
2022-09-27T05:49:58.729Z,14.28
2022-09-27T05:52:26.776Z,14.38
2022-09-27T05:54:53.558Z,14.37
2022-09-27T05:57:20.130Z,14.42
2022-09-27T05:59:47.871Z,14.30
2022-09-27T06:02:14.523Z,14.30
2022-09-27T06:04:41.161Z,14.37
2022-09-27T06:07:07.881Z,14.46
2022-09-27T06:09:34.476Z,14.49
2022-09-27T06:12:01.189Z,14.54
2022-09-27T06:14:27.919Z,14.45
2022-09-27T06:16:55.196Z,14.66
2022-09-27T06:19:22.059Z,14.66
2022-09-27T06:21:51.736Z,14.60
2022-09-27T06:24:18.402Z,14.36
2022-09-27T06:26:45.478Z,14.24
2022-09-27T06:29:12.161Z,14.16
2022-09-27T06:31:39.846Z,14.08
2022-09-27T06:34:06.803Z,14.05
2022-09-27T06:36:33.468Z,14.00
2022-09-27T06:39:01.796Z,14.15
2022-09-27T06:41:28.478Z,14.09
2022-09-27T06:43:56.269Z,14.05
2022-09-27T06:46:22.977Z,14.13
2022-09-27T06:48:49.590Z,14.12
2022-09-27T06:51:16.257Z,14.10
2022-09-27T06:53:43.053Z,13.90
2022-09-27T06:56:09.693Z,13.95
2022-09-27T06:58:55.227Z,14.01
2022-09-27T07:01:21.972Z,14.15
2022-09-27T07:03:51.734Z,14.26
2022-09-27T07:06:22.680Z,14.32
2022-09-27T07:08:53.622Z,14.45
2022-09-27T07:11:22.724Z,14.70
2022-09-27T07:13:51.140Z,14.76
2022-09-27T07:16:18.114Z,14.70
2022-09-27T07:18:44.890Z,14.75
2022-09-27T07:21:12.651Z,14.63
2022-09-27T07:23:39.541Z,14.31
2022-09-27T07:26:07.494Z,14.28
2022-09-27T07:28:34.641Z,14.45
2022-09-27T07:31:02.744Z,14.57
2022-09-27T07:33:30.875Z,14.63
2022-09-27T07:35:57.647Z,14.44
2022-09-27T07:38:24.331Z,14.78
2022-09-27T07:40:51.112Z,14.79
2022-09-27T07:43:19.522Z,14.83
2022-09-27T07:45:46.734Z,14.99
2022-09-27T07:48:15.891Z,14.98
2022-09-27T07:50:43.042Z,15.03
2022-09-27T07:53:12.950Z,15.13
2022-09-27T07:55:40.834Z,15.27
2022-09-27T07:58:10.420Z,15.00
2022-09-27T08:00:38.471Z,15.01
2022-09-27T08:03:07.340Z,15.04
2022-09-27T08:05:36.285Z,14.92
2022-09-27T08:08:04.037Z,14.82
2022-09-27T08:10:31.840Z,14.93
2022-09-27T08:12:59.519Z,15.00
2022-09-27T08:15:26.086Z,14.92
2022-09-27T08:17:53.657Z,15.06
2022-09-27T08:20:20.292Z,15.01
2022-09-27T08:22:47.016Z,15.04
2022-09-27T08:25:14.387Z,15.12
2022-09-27T08:27:41.796Z,15.13
2022-09-27T08:30:08.997Z,15.04
2022-09-27T08:32:36.678Z,15.06
2022-09-27T08:35:03.333Z,15.13
2022-09-27T08:37:30.038Z,15.01
2022-09-27T08:39:56.840Z,15.22
2022-09-27T08:42:47.006Z,15.35
2022-09-27T08:45:27.731Z,15.50
2022-09-27T08:48:00.270Z,15.71
2022-09-27T08:50:39.961Z,15.86
2022-09-27T08:53:55.050Z,15.99
2022-09-27T08:56:22.577Z,16.13
2022-09-27T08:58:55.405Z,16.11
2022-09-27T09:01:26.356Z,16.23
2022-09-27T09:04:00.047Z,16.40
2022-09-27T09:06:32.652Z,16.56
2022-09-27T09:09:14.968Z,16.51
2022-09-27T09:12:05.975Z,16.34
2022-09-27T09:14:57.310Z,16.68
2022-09-27T09:17:45.220Z,16.85
2022-09-27T09:20:49.218Z,17.29
2022-09-27T09:23:29.586Z,17.34
2022-09-27T09:26:13.541Z,17.29
2022-09-27T09:29:04.302Z,17.29
2022-09-27T09:31:37.057Z,17.11
2022-09-27T09:34:44.936Z,17.27
2022-09-27T09:37:16.458Z,17.27
2022-09-27T09:39:50.356Z,17.32
2022-09-27T09:42:33.389Z,16.76
2022-09-27T09:45:16.243Z,17.22
2022-09-27T09:48:29.751Z,17.18
2022-09-27T09:51:01.474Z,17.25
2022-09-27T09:53:49.242Z,17.34
2022-09-27T09:56:27.981Z,17.22
2022-09-27T09:59:05.402Z,16.52
2022-09-27T10:01:47.027Z,16.91
2022-09-27T10:04:32.802Z,16.79
2022-09-27T10:07:01.358Z,16.69
2022-09-27T10:09:28.886Z,16.62
2022-09-27T10:11:56.259Z,16.75
2022-09-27T10:14:23.260Z,16.91
2022-09-27T10:16:55.918Z,16.96
2022-09-27T10:19:30.306Z,17.10
2022-09-27T10:22:14.361Z,17.38
2022-09-27T10:25:02.555Z,17.81
2022-09-27T10:27:42.788Z,18.28
2022-09-27T10:30:41.865Z,18.40
2022-09-27T10:33:16.819Z,18.29
2022-09-27T10:35:46.170Z,18.23
2022-09-27T10:38:34.024Z,18.28
2022-09-27T10:41:17.456Z,18.33
2022-09-27T10:43:44.168Z,18.51
2022-09-27T10:46:19.612Z,18.51
2022-09-27T10:48:46.209Z,18.59
2022-09-27T10:51:31.442Z,18.56
2022-09-27T10:54:01.684Z,18.71
2022-09-27T10:56:31.592Z,18.89
2022-09-27T10:59:00.202Z,19.06
2022-09-27T11:01:38.708Z,19.19
2022-09-27T11:04:06.490Z,19.25
2022-09-27T11:06:37.960Z,19.40
2022-09-27T11:09:31.454Z,19.13
2022-09-27T11:12:13.231Z,19.47
2022-09-27T11:14:41.174Z,19.79
2022-09-27T11:17:07.762Z,19.93
2022-09-27T11:20:07.440Z,20.13
2022-09-27T11:22:58.933Z,20.13
2022-09-27T11:25:44.230Z,20.47
2022-09-27T11:28:38.008Z,20.83
2022-09-27T11:31:19.832Z,21.06
2022-09-27T11:34:01.499Z,21.27
2022-09-27T11:36:43.406Z,21.79
2022-09-27T11:39:26.935Z,22.27
2022-09-27T11:42:02.825Z,22.84
2022-09-27T11:44:40.409Z,22.93
2022-09-27T11:47:46.034Z,23.03
2022-09-27T11:50:27.989Z,23.33
2022-09-27T11:53:06.602Z,23.03
2022-09-27T11:56:00.822Z,22.80
2022-09-27T11:58:45.713Z,23.17
2022-09-27T12:01:25.984Z,23.07
2022-09-27T12:03:59.528Z,23.56
2022-09-27T12:06:34.038Z,24.13
2022-09-27T12:09:15.152Z,24.27
2022-09-27T12:12:04.562Z,24.19
2022-09-27T12:17:24.102Z,24.38
